createdAt,value
2023-01-29T00:00:22.589Z,71.20
2023-01-29T00:01:22.565Z,70.99
2023-01-29T00:02:22.621Z,71.09
2023-01-29T00:03:22.592Z,70.99
2023-01-29T00:04:22.582Z,71.20
2023-01-29T00:05:28.643Z,71.33
2023-01-29T00:06:23.536Z,71.44
2023-01-29T00:07:22.522Z,70.92
2023-01-29T00:08:22.501Z,71.54
2023-01-29T00:09:22.490Z,71.65
2023-01-29T00:10:22.544Z,71.96
2023-01-29T00:11:22.470Z,71.96
2023-01-29T00:12:22.482Z,71.65
2023-01-29T00:13:22.437Z,71.86
2023-01-29T00:14:22.441Z,71.96
2023-01-29T00:15:22.424Z,71.99
2023-01-29T00:16:22.424Z,72.27
2023-01-29T00:17:22.409Z,72.06
2023-01-29T00:18:22.426Z,72.06
2023-01-29T00:19:22.385Z,71.99
2023-01-29T00:20:22.388Z,72.58
2023-01-29T00:21:22.373Z,72.27
2023-01-29T00:22:22.346Z,72.17
2023-01-29T00:23:22.354Z,72.58
2023-01-29T00:24:22.420Z,72.24
2023-01-29T00:25:22.310Z,72.45
2023-01-29T00:26:22.303Z,72.00
2023-01-29T00:27:22.293Z,71.48
2023-01-29T00:28:22.281Z,71.06
2023-01-29T00:29:22.274Z,71.17
2023-01-29T00:30:22.295Z,71.27
2023-01-29T00:31:22.468Z,71.17
2023-01-29T00:32:22.278Z,71.20
2023-01-29T00:33:22.241Z,70.89
2023-01-29T00:34:22.231Z,71.54
2023-01-29T00:35:22.250Z,72.17
2023-01-29T00:36:22.226Z,72.30
2023-01-29T00:37:22.225Z,72.20
2023-01-29T00:38:22.185Z,72.51
2023-01-29T00:39:26.429Z,72.72
2023-01-29T00:40:23.162Z,72.72
2023-01-29T00:41:22.172Z,72.51
2023-01-29T00:42:22.169Z,72.62
2023-01-29T00:43:22.124Z,72.41
2023-01-29T00:44:22.125Z,72.93
2023-01-29T00:45:22.124Z,72.93
2023-01-29T00:46:22.144Z,73.24
2023-01-29T00:47:22.108Z,73.21
2023-01-29T00:48:22.079Z,73.52
2023-01-29T00:49:22.065Z,73.00
2023-01-29T00:50:22.075Z,72.89
2023-01-29T00:51:22.076Z,72.58
2023-01-29T00:52:22.040Z,72.89
2023-01-29T00:53:22.052Z,72.69
2023-01-29T00:54:22.018Z,72.34
2023-01-29T00:55:22.015Z,72.34
2023-01-29T00:56:21.996Z,72.48
2023-01-29T00:57:22.002Z,72.48
2023-01-29T00:58:21.983Z,73.32
2023-01-29T00:59:21.967Z,73.32
2023-01-29T01:00:21.971Z,73.63
2023-01-29T01:01:21.946Z,73.21
2023-01-29T01:02:22.026Z,72.79
2023-01-29T01:03:21.938Z,73.00
2023-01-29T01:04:21.903Z,72.89
2023-01-29T01:05:21.901Z,72.86
2023-01-29T01:06:21.888Z,72.76
2023-01-29T01:07:21.905Z,72.76
2023-01-29T01:08:21.872Z,72.38
2023-01-29T01:09:21.863Z,72.89
2023-01-29T01:10:21.945Z,73.21
2023-01-29T01:11:21.864Z,73.63
2023-01-29T01:12:21.859Z,73.59
2023-01-29T01:13:21.819Z,73.59
2023-01-29T01:14:21.842Z,73.21
2023-01-29T01:15:21.795Z,73.07
2023-01-29T01:16:21.802Z,73.28
2023-01-29T01:17:21.806Z,73.28
2023-01-29T01:18:21.791Z,73.07
2023-01-29T01:19:21.755Z,73.42
2023-01-29T01:20:21.745Z,73.18
2023-01-29T01:21:21.730Z,73.18
2023-01-29T01:22:21.725Z,73.28
2023-01-29T01:23:21.746Z,73.49
2023-01-29T01:24:21.760Z,72.97
2023-01-29T01:25:21.707Z,73.59
2023-01-29T01:26:21.675Z,73.59
2023-01-29T01:27:21.686Z,73.49
2023-01-29T01:28:21.690Z,73.18
2023-01-29T01:29:21.653Z,73.38
2023-01-29T01:30:21.735Z,73.28
2023-01-29T01:31:21.763Z,73.59
2023-01-29T01:32:21.626Z,73.59
2023-01-29T01:33:21.605Z,73.80
2023-01-29T01:34:21.613Z,73.35
2023-01-29T01:35:21.598Z,73.66
2023-01-29T01:36:21.569Z,73.87
2023-01-29T01:37:21.572Z,73.46
2023-01-29T01:38:21.555Z,73.03
2023-01-29T01:39:21.577Z,73.18
2023-01-29T01:40:21.552Z,73.69
2023-01-29T01:41:21.522Z,74.01
2023-01-29T01:42:21.506Z,73.80
2023-01-29T01:43:21.523Z,74.21
2023-01-29T01:44:21.512Z,74.29
2023-01-29T01:45:21.516Z,74.80
2023-01-29T01:46:21.477Z,74.29
2023-01-29T01:47:21.459Z,73.77
2023-01-29T01:48:21.445Z,73.77
2023-01-29T01:49:21.433Z,74.08
2023-01-29T01:50:21.435Z,73.77
2023-01-29T01:51:21.441Z,73.77
2023-01-29T01:52:21.411Z,73.90
2023-01-29T01:53:21.399Z,74.95
2023-01-29T01:54:21.387Z,74.87
2023-01-29T01:55:21.406Z,74.11
2023-01-29T01:56:21.369Z,75.09
2023-01-29T01:57:21.381Z,75.40
2023-01-29T01:58:21.349Z,75.19
2023-01-29T01:59:21.353Z,75.19
2023-01-29T02:00:21.361Z,74.98
2023-01-29T02:01:21.410Z,75.09
2023-01-29T02:02:24.620Z,74.74
2023-01-29T02:03:21.294Z,75.26
2023-01-29T02:04:21.341Z,75.12
2023-01-29T02:05:21.315Z,75.36
2023-01-29T02:06:21.284Z,74.74
2023-01-29T02:07:21.247Z,74.95
2023-01-29T02:08:21.241Z,74.74
2023-01-29T02:09:21.232Z,74.43
2023-01-29T02:10:21.225Z,74.11
2023-01-29T02:11:21.238Z,74.53
2023-01-29T02:12:21.229Z,74.08
2023-01-29T02:13:21.190Z,74.29
2023-01-29T02:14:21.176Z,74.18
2023-01-29T02:15:21.188Z,74.80
2023-01-29T02:16:21.176Z,74.80
2023-01-29T02:17:21.179Z,74.18
2023-01-29T02:18:21.136Z,73.80
2023-01-29T02:19:21.120Z,74.11
2023-01-29T02:20:21.118Z,74.32
2023-01-29T02:21:21.131Z,75.09
2023-01-29T02:22:21.101Z,75.29
2023-01-29T02:23:21.079Z,75.46
2023-01-29T02:24:21.156Z,75.15
2023-01-29T02:25:21.070Z,74.63
2023-01-29T02:26:21.102Z,75.22
2023-01-29T02:27:21.069Z,74.08
2023-01-29T02:28:21.049Z,74.39
2023-01-29T02:29:21.058Z,74.80
2023-01-29T02:30:21.024Z,74.91
2023-01-29T02:31:21.171Z,74.91
2023-01-29T02:32:20.982Z,74.91
2023-01-29T02:33:21.006Z,74.95
2023-01-29T02:34:20.960Z,74.32
2023-01-29T02:35:20.996Z,75.46
2023-01-29T02:36:20.942Z,75.60
2023-01-29T02:37:20.940Z,76.02
2023-01-29T02:38:30.125Z,75.95
2023-01-29T02:39:20.916Z,76.37
2023-01-29T02:40:20.936Z,76.99
2023-01-29T02:41:20.890Z,77.10
2023-01-29T02:42:20.879Z,76.68
2023-01-29T02:43:20.896Z,76.54
2023-01-29T02:44:20.884Z,76.54
2023-01-29T02:45:20.848Z,76.82
2023-01-29T02:46:20.871Z,75.57
2023-01-29T02:47:20.844Z,75.46
2023-01-29T02:48:20.820Z,75.46
2023-01-29T02:49:20.838Z,74.74
2023-01-29T02:50:20.821Z,75.26
2023-01-29T02:51:20.801Z,75.15
2023-01-29T02:52:20.786Z,74.95
2023-01-29T02:53:20.765Z,75.40
2023-01-29T02:54:20.779Z,75.50
2023-01-29T02:55:20.753Z,75.92
2023-01-29T02:56:20.739Z,76.57
2023-01-29T02:57:20.766Z,76.43
2023-01-29T02:58:20.715Z,77.06
2023-01-29T02:59:20.702Z,77.06
2023-01-29T03:00:20.700Z,76.57
2023-01-29T03:01:20.808Z,76.47
2023-01-29T03:02:20.723Z,76.89
2023-01-29T03:03:20.682Z,77.34
2023-01-29T03:04:20.765Z,77.23
2023-01-29T03:05:20.648Z,78.07
2023-01-29T03:06:20.694Z,78.17
2023-01-29T03:07:20.624Z,79.11
2023-01-29T03:08:20.618Z,78.38
2023-01-29T03:09:20.607Z,78.91
2023-01-29T03:10:20.595Z,79.08
2023-01-29T03:11:20.572Z,78.34
2023-01-29T03:12:20.603Z,78.34
2023-01-29T03:13:20.557Z,77.72
2023-01-29T03:14:20.552Z,77.51
2023-01-29T03:15:20.532Z,77.79
2023-01-29T03:16:20.556Z,76.96
2023-01-29T03:17:20.521Z,76.96
2023-01-29T03:18:20.527Z,76.82
2023-01-29T03:19:20.526Z,77.03
2023-01-29T03:20:20.487Z,76.82
2023-01-29T03:21:20.470Z,76.92
2023-01-29T03:22:20.485Z,76.92
2023-01-29T03:23:20.486Z,76.99
2023-01-29T03:24:20.505Z,76.37
2023-01-29T03:25:20.437Z,76.72
2023-01-29T03:26:20.428Z,76.40
2023-01-29T03:27:20.407Z,76.20
2023-01-29T03:28:20.406Z,77.03
2023-01-29T03:29:20.421Z,76.99
2023-01-29T03:30:20.383Z,76.37
2023-01-29T03:31:20.450Z,76.37
2023-01-29T03:32:20.359Z,76.47
2023-01-29T03:33:20.378Z,76.57
2023-01-29T03:34:20.338Z,76.78
2023-01-29T03:35:20.348Z,76.02
2023-01-29T03:36:20.311Z,75.50
2023-01-29T03:37:20.308Z,75.43
2023-01-29T03:38:20.324Z,75.85
2023-01-29T03:39:20.289Z,75.54
2023-01-29T03:40:20.279Z,76.61
2023-01-29T03:41:20.260Z,77.03
2023-01-29T03:42:20.256Z,76.65
2023-01-29T03:43:20.245Z,76.86
2023-01-29T03:44:20.267Z,77.48
2023-01-29T03:45:20.215Z,76.96
2023-01-29T03:46:20.207Z,77.58
2023-01-29T03:47:20.195Z,77.48
2023-01-29T03:48:20.189Z,77.69
2023-01-29T03:49:20.205Z,77.13
2023-01-29T03:50:20.171Z,77.13
2023-01-29T03:51:20.155Z,77.23
2023-01-29T03:52:20.138Z,77.23
2023-01-29T03:53:20.133Z,77.55
2023-01-29T03:54:20.162Z,77.44
2023-01-29T03:55:20.115Z,77.23
2023-01-29T03:56:20.104Z,77.55
2023-01-29T03:57:20.107Z,77.34
2023-01-29T03:58:20.084Z,77.23
2023-01-29T03:59:20.074Z,77.34
2023-01-29T04:00:20.084Z,77.65
2023-01-29T04:01:20.113Z,77.86
2023-01-29T04:02:20.047Z,78.10
2023-01-29T04:03:20.025Z,77.75
2023-01-29T04:04:20.128Z,77.58
2023-01-29T04:05:20.014Z,77.79
2023-01-29T04:06:19.995Z,77.89
2023-01-29T04:07:19.981Z,78.20
2023-01-29T04:08:19.985Z,77.86
2023-01-29T04:09:20.002Z,77.86
2023-01-29T04:10:19.953Z,77.65
2023-01-29T04:11:19.950Z,77.75
2023-01-29T04:12:19.939Z,77.44
2023-01-29T04:13:19.933Z,77.65
2023-01-29T04:14:19.945Z,77.86
2023-01-29T04:15:19.909Z,78.10
2023-01-29T04:16:19.917Z,78.10
2023-01-29T04:17:19.881Z,78.90
2023-01-29T04:18:19.872Z,78.80
2023-01-29T04:19:19.873Z,78.69
2023-01-29T04:20:19.954Z,78.07
2023-01-29T04:21:19.861Z,78.49
2023-01-29T04:22:19.832Z,78.73
2023-01-29T04:23:19.820Z,79.00
2023-01-29T04:24:19.840Z,78.90
2023-01-29T04:25:19.829Z,78.90
2023-01-29T04:26:19.795Z,79.21
2023-01-29T04:27:19.774Z,79.25
2023-01-29T04:28:19.773Z,79.77
2023-01-29T04:29:19.759Z,80.29
2023-01-29T04:30:19.742Z,80.71
2023-01-29T04:31:19.858Z,80.71
2023-01-29T04:32:19.737Z,80.50
2023-01-29T04:33:19.741Z,81.23
2023-01-29T04:34:19.708Z,81.43
2023-01-29T04:35:19.727Z,81.65
2023-01-29T04:36:19.685Z,81.54
2023-01-29T04:37:19.674Z,81.33
2023-01-29T04:38:19.680Z,81.33
2023-01-29T04:39:19.656Z,82.17
2023-01-29T04:40:19.642Z,81.33
2023-01-29T04:41:19.664Z,81.33
2023-01-29T04:42:19.624Z,81.65
2023-01-29T04:43:19.616Z,82.17
2023-01-29T04:44:19.592Z,81.75
2023-01-29T04:45:19.594Z,81.65
2023-01-29T04:46:19.584Z,81.96
2023-01-29T04:47:19.617Z,81.65
2023-01-29T04:48:19.548Z,82.37
2023-01-29T04:49:19.549Z,81.68
2023-01-29T04:50:19.724Z,82.31
2023-01-29T04:51:19.529Z,82.20
2023-01-29T04:52:19.519Z,81.99
2023-01-29T04:53:19.538Z,82.72
2023-01-29T04:54:19.499Z,83.04
2023-01-29T04:55:19.509Z,82.82
2023-01-29T04:56:19.468Z,83.14
2023-01-29T04:57:19.465Z,83.35
2023-01-29T04:58:19.458Z,82.72
2023-01-29T04:59:19.469Z,83.56
2023-01-29T05:00:19.519Z,83.56
2023-01-29T05:01:19.431Z,83.87
2023-01-29T05:02:19.432Z,84.50
2023-01-29T05:03:19.400Z,83.87
2023-01-29T05:04:19.381Z,84.28
2023-01-29T05:05:19.403Z,84.50
2023-01-29T05:06:19.368Z,85.02
2023-01-29T05:07:19.367Z,84.56
2023-01-29T05:08:19.361Z,84.56
2023-01-29T05:09:19.344Z,85.29
2023-01-29T05:10:19.703Z,85.25
2023-01-29T05:11:19.307Z,84.42
2023-01-29T05:12:19.298Z,84.83
2023-01-29T05:13:19.295Z,85.46
2023-01-29T05:14:19.330Z,85.56
2023-01-29T05:15:19.273Z,85.98
2023-01-29T05:16:19.335Z,87.02
2023-01-29T05:17:19.261Z,86.60
2023-01-29T05:18:19.269Z,86.91
2023-01-29T05:19:19.238Z,86.29
2023-01-29T05:20:19.313Z,87.23
2023-01-29T05:21:19.254Z,86.88
2023-01-29T05:22:19.207Z,86.71
2023-01-29T05:23:19.230Z,86.71
2023-01-29T05:24:19.267Z,86.91
2023-01-29T05:25:19.174Z,86.77
2023-01-29T05:26:19.158Z,86.91
2023-01-29T05:27:19.149Z,87.02
2023-01-29T05:28:19.180Z,87.12
2023-01-29T05:29:19.125Z,87.79
2023-01-29T05:30:19.432Z,88.42
2023-01-29T05:31:19.266Z,88.20
2023-01-29T05:32:19.129Z,88.73
2023-01-29T05:33:19.138Z,89.14
2023-01-29T05:34:19.080Z,88.42
2023-01-29T05:35:19.094Z,88.93
2023-01-29T05:36:19.050Z,88.93
2023-01-29T05:37:19.046Z,88.93
2023-01-29T05:38:19.035Z,88.52
2023-01-29T05:39:19.048Z,88.62
2023-01-29T05:40:19.253Z,88.42
2023-01-29T05:41:19.009Z,88.66
2023-01-29T05:42:19.013Z,88.83
2023-01-29T05:43:18.980Z,88.31
2023-01-29T05:44:18.981Z,88.73
2023-01-29T05:45:18.996Z,88.52
2023-01-29T05:46:18.999Z,88.31
2023-01-29T05:47:18.942Z,87.89
2023-01-29T05:48:18.933Z,88.20
2023-01-29T05:49:18.920Z,87.16
2023-01-29T05:50:19.068Z,87.58
2023-01-29T05:51:18.927Z,87.27
2023-01-29T05:52:18.888Z,87.43
2023-01-29T05:53:18.890Z,87.48
2023-01-29T05:54:18.861Z,87.16
2023-01-29T05:55:18.859Z,87.43
2023-01-29T05:56:18.880Z,86.50
2023-01-29T05:57:18.854Z,87.02
2023-01-29T05:58:18.829Z,86.91
2023-01-29T05:59:18.809Z,86.71
2023-01-29T06:00:19.044Z,86.50
2023-01-29T06:01:18.803Z,86.91
2023-01-29T06:02:18.784Z,86.71
2023-01-29T06:03:18.829Z,86.91
2023-01-29T06:04:18.795Z,86.71
2023-01-29T06:05:18.757Z,86.81
2023-01-29T06:06:18.827Z,86.40
2023-01-29T06:07:18.731Z,86.60
2023-01-29T06:08:18.755Z,86.40
2023-01-29T06:09:18.713Z,86.46
2023-01-29T06:10:19.014Z,86.67
2023-01-29T06:11:18.722Z,86.67
2023-01-29T06:12:18.682Z,86.67
2023-01-29T06:13:18.676Z,86.57
2023-01-29T06:14:18.689Z,86.04
2023-01-29T06:15:18.648Z,86.04
2023-01-29T06:16:18.748Z,86.04
2023-01-29T06:17:18.623Z,85.94
2023-01-29T06:18:18.610Z,85.52
2023-01-29T06:19:18.605Z,85.52
2023-01-29T06:20:18.881Z,85.21
2023-01-29T06:21:20.057Z,85.63
2023-01-29T06:22:18.580Z,85.42
2023-01-29T06:23:18.557Z,85.83
2023-01-29T06:24:18.611Z,86.04
2023-01-29T06:25:18.598Z,86.04
2023-01-29T06:26:18.536Z,86.04
2023-01-29T06:27:18.517Z,85.52
2023-01-29T06:28:18.507Z,85.83
2023-01-29T06:29:18.517Z,85.69
2023-01-29T06:30:18.791Z,85.52
2023-01-29T06:31:37.848Z,85.38
2023-01-29T06:32:19.601Z,84.65
2023-01-29T06:33:18.461Z,84.27
2023-01-29T06:34:18.498Z,84.96
2023-01-29T06:35:18.440Z,85.21
2023-01-29T06:36:18.430Z,84.75
2023-01-29T06:37:18.453Z,85.17
2023-01-29T06:38:18.442Z,85.59
2023-01-29T06:39:18.396Z,85.59
2023-01-29T06:40:18.729Z,84.65
2023-01-29T06:41:18.375Z,85.00
2023-01-29T06:42:18.358Z,84.86
2023-01-29T06:43:18.357Z,84.86
2023-01-29T06:44:18.348Z,85.17
2023-01-29T06:45:18.364Z,85.52
2023-01-29T06:46:18.323Z,85.42
2023-01-29T06:47:18.313Z,85.69
2023-01-29T06:48:18.300Z,85.06
2023-01-29T06:49:18.283Z,84.69
2023-01-29T06:50:18.527Z,84.75
2023-01-29T06:51:18.308Z,84.80
2023-01-29T06:52:18.261Z,84.75
2023-01-29T06:53:18.249Z,85.17
2023-01-29T06:54:18.244Z,85.52
2023-01-29T06:55:18.229Z,84.80
2023-01-29T06:56:18.266Z,85.11
2023-01-29T06:57:18.209Z,85.11
2023-01-29T06:58:18.202Z,85.83
2023-01-29T06:59:18.186Z,85.63
2023-01-29T07:00:18.629Z,85.52
2023-01-29T07:01:34.581Z,85.31
2023-01-29T07:02:19.195Z,85.83
2023-01-29T07:03:18.151Z,85.83
2023-01-29T07:04:18.135Z,85.73
2023-01-29T07:05:18.115Z,86.04
2023-01-29T07:06:18.145Z,85.52
2023-01-29T07:07:18.126Z,86.04
2023-01-29T07:08:18.089Z,85.63
2023-01-29T07:09:18.089Z,85.52
2023-01-29T07:10:18.476Z,86.04
2023-01-29T07:11:18.071Z,86.67
2023-01-29T07:12:18.086Z,86.25
2023-01-29T07:13:18.040Z,86.46
2023-01-29T07:14:18.029Z,85.94
2023-01-29T07:15:18.015Z,86.77
2023-01-29T07:16:18.036Z,86.67
2023-01-29T07:17:17.999Z,86.46
2023-01-29T07:18:18.013Z,86.67
2023-01-29T07:19:17.966Z,86.35
2023-01-29T07:20:18.295Z,86.88
2023-01-29T07:21:17.962Z,86.57
2023-01-29T07:22:17.972Z,86.57
2023-01-29T07:23:17.933Z,88.33
2023-01-29T07:24:17.962Z,88.43
2023-01-29T07:25:17.910Z,88.27
2023-01-29T07:26:17.907Z,88.33
2023-01-29T07:27:17.921Z,88.33
2023-01-29T07:28:17.904Z,88.23
2023-01-29T07:29:17.869Z,88.89
2023-01-29T07:30:18.197Z,88.58
2023-01-29T07:31:18.131Z,88.89
2023-01-29T07:32:17.889Z,89.20
2023-01-29T07:33:17.834Z,89.41
2023-01-29T07:34:17.854Z,90.20
2023-01-29T07:35:17.809Z,90.10
2023-01-29T07:36:17.821Z,90.41
2023-01-29T07:37:17.784Z,90.72
2023-01-29T07:38:17.785Z,90.69
2023-01-29T07:39:17.837Z,90.83
2023-01-29T07:40:17.999Z,90.89
2023-01-29T07:41:17.761Z,90.06
2023-01-29T07:42:17.764Z,89.75
2023-01-29T07:43:17.741Z,89.23
2023-01-29T07:44:17.816Z,89.12
2023-01-29T07:45:17.698Z,88.71
2023-01-29T07:46:17.824Z,88.92
2023-01-29T07:47:17.690Z,89.12
2023-01-29T07:48:17.671Z,88.12
2023-01-29T07:49:17.710Z,88.40
2023-01-29T07:50:17.945Z,88.81
2023-01-29T07:51:17.640Z,88.12
2023-01-29T07:52:17.631Z,88.02
2023-01-29T07:53:17.627Z,88.58
2023-01-29T07:54:17.644Z,89.10
2023-01-29T07:55:17.633Z,89.00
2023-01-29T07:56:17.604Z,89.31
2023-01-29T07:57:17.582Z,89.52
2023-01-29T07:58:17.564Z,90.10
2023-01-29T07:59:17.562Z,90.72
2023-01-29T08:00:17.880Z,90.52
2023-01-29T08:01:17.616Z,90.41
2023-01-29T08:02:17.571Z,91.25
2023-01-29T08:03:17.518Z,90.72
2023-01-29T08:04:17.509Z,91.77
2023-01-29T08:05:17.525Z,91.97
2023-01-29T08:06:17.487Z,91.41
2023-01-29T08:07:17.469Z,91.66
2023-01-29T08:08:17.459Z,91.56
2023-01-29T08:09:17.448Z,91.41
2023-01-29T08:10:17.851Z,91.56
2023-01-29T08:11:17.436Z,91.97
2023-01-29T08:12:17.430Z,91.83
2023-01-29T08:13:17.406Z,91.04
2023-01-29T08:14:17.403Z,91.66
2023-01-29T08:15:17.391Z,91.66
2023-01-29T08:16:17.461Z,91.87
2023-01-29T08:17:17.378Z,91.50
2023-01-29T08:18:17.363Z,92.02
2023-01-29T08:19:17.350Z,92.22
2023-01-29T08:20:17.641Z,91.97
2023-01-29T08:21:17.354Z,91.56
2023-01-29T08:22:17.319Z,92.18
2023-01-29T08:23:17.304Z,92.49
2023-01-29T08:24:17.348Z,92.08
2023-01-29T08:25:17.296Z,91.77
2023-01-29T08:26:17.318Z,92.08
2023-01-29T08:27:17.259Z,91.66
2023-01-29T08:28:17.268Z,91.66
2023-01-29T08:29:17.237Z,91.97
2023-01-29T08:30:18.440Z,91.39
2023-01-29T08:31:17.236Z,91.50
2023-01-29T08:32:17.226Z,91.46
2023-01-29T08:33:19.464Z,91.66
2023-01-29T08:34:17.195Z,91.97
2023-01-29T08:35:17.684Z,91.87
2023-01-29T08:36:17.195Z,91.66
2023-01-29T08:37:17.166Z,91.97
2023-01-29T08:38:17.161Z,91.35
2023-01-29T08:39:17.133Z,91.62
2023-01-29T08:40:17.413Z,91.31
2023-01-29T08:41:24.211Z,91.52
2023-01-29T08:42:17.110Z,91.41
2023-01-29T08:43:17.100Z,91.41
2023-01-29T08:44:17.090Z,90.37
2023-01-29T08:45:17.090Z,90.72
2023-01-29T08:46:17.096Z,90.69
2023-01-29T08:47:17.081Z,90.47
2023-01-29T08:48:17.060Z,90.37
2023-01-29T08:49:17.042Z,90.69
2023-01-29T08:50:17.346Z,90.62
2023-01-29T08:51:17.015Z,90.69
2023-01-29T08:52:17.034Z,90.62
2023-01-29T08:53:16.990Z,90.79
2023-01-29T08:54:16.976Z,90.89
2023-01-29T08:55:17.463Z,90.41
2023-01-29T08:56:16.963Z,90.69
2023-01-29T08:57:16.949Z,90.52
2023-01-29T08:58:16.971Z,90.72
2023-01-29T08:59:16.928Z,90.37
2023-01-29T09:00:17.205Z,90.26
2023-01-29T09:01:16.916Z,90.69
2023-01-29T09:02:16.985Z,90.26
2023-01-29T09:03:16.911Z,90.95
2023-01-29T09:04:16.879Z,89.92
2023-01-29T09:05:17.009Z,90.23
2023-01-29T09:06:16.855Z,89.64
2023-01-29T09:07:16.835Z,89.85
2023-01-29T09:08:16.874Z,90.02
2023-01-29T09:09:16.825Z,88.71
2023-01-29T09:10:16.824Z,88.92
2023-01-29T09:11:16.794Z,88.92
2023-01-29T09:12:16.786Z,88.92
2023-01-29T09:13:16.821Z,88.81
2023-01-29T09:14:18.668Z,89.33
2023-01-29T09:15:17.068Z,89.23
2023-01-29T09:16:16.781Z,89.33
2023-01-29T09:17:16.733Z,89.23
2023-01-29T09:18:16.728Z,89.02
2023-01-29T09:19:16.740Z,89.39
2023-01-29T09:20:16.698Z,88.77
2023-01-29T09:21:16.695Z,89.18
2023-01-29T09:22:16.698Z,88.87
2023-01-29T09:23:16.674Z,88.98
2023-01-29T09:24:16.684Z,88.77
2023-01-29T09:25:17.000Z,88.77
2023-01-29T09:26:16.695Z,88.10
2023-01-29T09:27:16.657Z,88.04
2023-01-29T09:28:16.614Z,87.63
2023-01-29T09:29:16.646Z,87.84
2023-01-29T09:30:16.633Z,87.94
2023-01-29T09:31:16.740Z,88.25
2023-01-29T09:32:23.231Z,87.79
2023-01-29T09:33:17.620Z,88.25
2023-01-29T09:34:16.571Z,88.25
2023-01-29T09:35:16.760Z,88.04
2023-01-29T09:36:16.556Z,88.31
2023-01-29T09:37:16.523Z,88.10
2023-01-29T09:38:16.516Z,87.69
2023-01-29T09:39:16.748Z,87.90
2023-01-29T09:40:16.483Z,87.38
2023-01-29T09:41:16.488Z,86.96
2023-01-29T09:42:16.469Z,86.86
2023-01-29T09:43:16.458Z,86.86
2023-01-29T09:44:16.460Z,86.93
2023-01-29T09:45:16.834Z,86.44
2023-01-29T09:46:16.439Z,86.19
2023-01-29T09:47:16.702Z,86.61
2023-01-29T09:48:16.408Z,86.51
2023-01-29T09:49:16.393Z,85.99
2023-01-29T09:50:17.834Z,85.68
2023-01-29T09:51:16.366Z,85.57
2023-01-29T09:52:16.357Z,85.57
2023-01-29T09:53:16.361Z,85.78
2023-01-29T09:54:16.333Z,85.88
2023-01-29T09:55:16.593Z,86.51
2023-01-29T09:56:16.325Z,85.36
2023-01-29T09:57:16.298Z,85.33
2023-01-29T09:58:16.294Z,85.68
2023-01-29T09:59:16.315Z,84.74
2023-01-29T10:00:16.278Z,85.16
2023-01-29T10:01:16.361Z,85.47
2023-01-29T10:02:16.332Z,85.47
2023-01-29T10:03:16.245Z,85.74
2023-01-29T10:04:16.255Z,85.16
2023-01-29T10:05:16.588Z,85.16
2023-01-29T10:06:16.258Z,84.84
2023-01-29T10:07:16.280Z,85.33
2023-01-29T10:08:16.187Z,85.22
2023-01-29T10:09:16.172Z,85.74
2023-01-29T10:10:16.202Z,84.91
2023-01-29T10:11:16.188Z,85.22
2023-01-29T10:12:16.145Z,84.81
2023-01-29T10:13:16.134Z,84.19
2023-01-29T10:14:16.129Z,83.73
2023-01-29T10:15:16.441Z,83.73
2023-01-29T10:16:16.119Z,84.25
2023-01-29T10:17:16.226Z,84.46
2023-01-29T10:18:16.076Z,83.38
2023-01-29T10:19:16.072Z,83.59
2023-01-29T10:20:16.060Z,83.38
2023-01-29T10:21:16.068Z,83.69
2023-01-29T10:22:16.036Z,83.59
2023-01-29T10:23:16.024Z,82.82
2023-01-29T10:24:16.024Z,82.93
2023-01-29T10:25:16.381Z,81.89
2023-01-29T10:26:16.015Z,81.99
2023-01-29T10:27:16.031Z,81.96
2023-01-29T10:28:15.968Z,81.65
2023-01-29T10:29:15.961Z,81.09
2023-01-29T10:30:15.978Z,80.16
2023-01-29T10:31:16.083Z,80.05
2023-01-29T10:32:15.995Z,79.95
2023-01-29T10:33:15.917Z,80.16
2023-01-29T10:34:15.916Z,79.85
2023-01-29T10:35:16.171Z,80.36
2023-01-29T10:36:15.884Z,79.91
2023-01-29T10:37:15.902Z,79.30
2023-01-29T10:38:15.883Z,79.13
2023-01-29T10:39:15.855Z,78.78
2023-01-29T10:40:15.846Z,78.99
2023-01-29T10:41:15.839Z,78.99
2023-01-29T10:42:15.823Z,78.67
2023-01-29T10:43:15.842Z,78.88
2023-01-29T10:44:15.807Z,78.95
2023-01-29T10:45:16.165Z,78.99
2023-01-29T10:46:15.777Z,78.05
2023-01-29T10:47:15.818Z,78.33
2023-01-29T10:48:15.765Z,78.36
2023-01-29T10:49:15.765Z,78.47
2023-01-29T10:50:15.743Z,78.16
2023-01-29T10:51:15.721Z,78.16
2023-01-29T10:52:15.711Z,78.47
2023-01-29T10:53:15.753Z,78.36
2023-01-29T10:54:15.697Z,78.47
2023-01-29T10:55:15.990Z,78.57
2023-01-29T10:56:22.820Z,78.78
2023-01-29T10:57:16.666Z,78.78
2023-01-29T10:58:15.654Z,78.53
2023-01-29T10:59:15.641Z,78.64
2023-01-29T11:00:15.640Z,78.43
2023-01-29T11:01:15.655Z,78.43
2023-01-29T11:02:15.612Z,78.26
2023-01-29T11:03:26.844Z,78.16
2023-01-29T11:04:16.627Z,78.47
2023-01-29T11:05:15.792Z,78.16
2023-01-29T11:06:15.561Z,78.47
2023-01-29T11:07:15.552Z,78.57
2023-01-29T11:08:15.549Z,77.95
2023-01-29T11:09:15.525Z,78.16
2023-01-29T11:10:15.799Z,78.26
2023-01-29T11:11:15.537Z,78.26
2023-01-29T11:12:15.498Z,78.47
2023-01-29T11:13:15.495Z,78.02
2023-01-29T11:14:15.494Z,77.39
2023-01-29T11:15:15.525Z,76.98
2023-01-29T11:16:15.563Z,76.46
2023-01-29T11:17:15.504Z,76.74
2023-01-29T11:18:15.456Z,77.43
2023-01-29T11:19:15.431Z,77.74
2023-01-29T11:20:15.822Z,77.95
2023-01-29T11:21:15.424Z,77.98
2023-01-29T11:22:15.397Z,78.16
2023-01-29T11:23:15.380Z,77.74
2023-01-29T11:24:15.383Z,77.33
2023-01-29T11:25:15.410Z,77.19
2023-01-29T11:26:15.398Z,76.98
2023-01-29T11:27:15.341Z,76.67
2023-01-29T11:28:15.323Z,76.36
2023-01-29T11:29:15.318Z,76.26
2023-01-29T11:30:15.747Z,76.36
2023-01-29T11:31:15.413Z,76.36
2023-01-29T11:32:15.295Z,76.36
2023-01-29T11:33:18.275Z,76.50
2023-01-29T11:34:15.268Z,77.12
2023-01-29T11:35:15.385Z,77.26
2023-01-29T11:36:15.240Z,77.33
2023-01-29T11:37:15.236Z,77.53
2023-01-29T11:38:15.218Z,77.43
2023-01-29T11:39:15.206Z,77.12
2023-01-29T11:40:15.551Z,76.91
2023-01-29T11:41:15.215Z,77.22
2023-01-29T11:42:15.184Z,77.43
2023-01-29T11:43:15.173Z,78.47
2023-01-29T11:44:15.159Z,77.33
2023-01-29T11:45:15.151Z,76.40
2023-01-29T11:46:15.180Z,76.67
2023-01-29T11:47:15.141Z,76.36
2023-01-29T11:48:15.119Z,75.98
2023-01-29T11:49:20.840Z,76.09
2023-01-29T11:50:19.127Z,76.43
2023-01-29T11:51:15.091Z,77.36
2023-01-29T11:52:15.095Z,78.64
2023-01-29T11:53:15.064Z,78.54
2023-01-29T11:54:15.060Z,78.54
2023-01-29T11:55:15.038Z,78.54
2023-01-29T11:56:15.785Z,78.33
2023-01-29T11:57:15.024Z,77.40
2023-01-29T11:58:15.021Z,78.61
2023-01-29T11:59:15.021Z,77.81
2023-01-29T12:00:15.660Z,77.67
2023-01-29T12:01:15.024Z,78.19
2023-01-29T12:02:14.961Z,78.19
2023-01-29T12:03:15.099Z,77.78
2023-01-29T12:04:14.996Z,77.26
2023-01-29T12:05:14.939Z,77.01
2023-01-29T12:06:15.112Z,77.01
2023-01-29T12:07:14.914Z,76.50
2023-01-29T12:08:14.926Z,76.29
2023-01-29T12:09:16.676Z,76.61
2023-01-29T12:10:15.214Z,76.46
2023-01-29T12:11:14.876Z,76.40
2023-01-29T12:12:14.878Z,76.09
2023-01-29T12:13:14.845Z,76.50
2023-01-29T12:14:14.892Z,76.09
2023-01-29T12:15:14.834Z,76.71
2023-01-29T12:16:15.778Z,76.61
2023-01-29T12:17:14.907Z,76.61
2023-01-29T12:18:14.850Z,76.40
2023-01-29T12:19:15.705Z,76.71
2023-01-29T12:20:15.272Z,76.29
2023-01-29T12:21:14.859Z,76.71
2023-01-29T12:22:15.280Z,76.50
2023-01-29T12:23:14.930Z,76.19
2023-01-29T12:24:14.863Z,76.26
2023-01-29T12:25:15.020Z,76.57
2023-01-29T12:26:14.926Z,75.95
2023-01-29T12:27:14.893Z,76.67
2023-01-29T12:28:15.777Z,75.84
2023-01-29T12:29:14.771Z,76.15
2023-01-29T12:30:15.124Z,76.26
2023-01-29T12:31:15.247Z,76.15
2023-01-29T12:32:14.719Z,76.15
2023-01-29T12:33:15.207Z,75.95
2023-01-29T12:34:14.626Z,75.74
2023-01-29T12:35:14.609Z,76.05
2023-01-29T12:36:14.628Z,76.26
2023-01-29T12:37:14.596Z,75.43
2023-01-29T12:38:14.576Z,76.15
2023-01-29T12:39:14.580Z,75.43
2023-01-29T12:40:15.180Z,75.22
2023-01-29T12:41:14.545Z,76.19
2023-01-29T12:42:14.534Z,75.98
2023-01-29T12:43:14.533Z,76.50
2023-01-29T12:44:14.521Z,75.98
2023-01-29T12:45:14.526Z,76.43
2023-01-29T12:46:14.488Z,76.74
2023-01-29T12:47:16.984Z,77.05
2023-01-29T12:48:14.501Z,76.84
2023-01-29T12:49:14.471Z,76.53
2023-01-29T12:50:15.080Z,77.19
2023-01-29T12:51:14.453Z,77.40
2023-01-29T12:52:14.453Z,77.40